Time;durP1;ratioP1;P1;durP2;ratioP2;P2;SDS_P1;SDS_P2;PMS_P1;PMS_P2;Temp;Humidity;BMP_temperature;BMP_pressure;BME280_temperature;BME280_humidity;BME280_pressure;Samples;Min_cycle;Max_cycle;Signal;HPM_P1;HPM_P2
2021/09/27 00:01:19;;;;;;;23.52;16.67;;;17.20;94.90;;;;;;4997379;28;20030;-91
2021/09/27 00:03:45;;;;;;;24.67;16.77;;;17.10;94.90;;;;;;4996917;28;20025;-91
2021/09/27 00:06:12;;;;;;;25.42;16.67;;;17.10;94.90;;;;;;4997390;28;20068;-91
2021/09/27 00:08:38;;;;;;;23.10;15.93;;;17.10;94.90;;;;;;5012200;28;20520;-91
2021/09/27 00:11:20;;;;;;;18.67;13.07;;;17.00;94.90;;;;;;4994783;28;20029;-91
2021/09/27 00:13:50;;;;;;;22.63;16.08;;;17.00;95.00;;;;;;4976758;28;20038;-91
2021/09/27 00:16:17;;;;;;;23.67;16.13;;;17.10;95.00;;;;;;4977405;28;20104;-91
2021/09/27 00:18:42;;;;;;;23.25;16.13;;;17.00;94.90;;;;;;4977137;28;20026;-91
2021/09/27 00:21:13;;;;;;;20.27;14.13;;;17.00;94.90;;;;;;4976977;28;20192;-91
2021/09/27 00:23:39;;;;;;;23.85;16.33;;;17.00;94.90;;;;;;5004967;28;20034;-91
2021/09/27 00:26:06;;;;;;;27.30;17.08;;;17.00;94.90;;;;;;4996315;28;20052;-91
2021/09/27 00:28:32;;;;;;;26.17;16.92;;;16.90;94.90;;;;;;5005835;28;20490;-90
2021/09/27 00:30:58;;;;;;;25.60;17.52;;;16.90;94.90;;;;;;5006631;28;20022;-91
2021/09/27 00:33:25;;;;;;;26.05;18.52;;;16.90;94.90;;;;;;4996007;28;20041;-91
2021/09/27 00:35:52;;;;;;;23.20;15.50;;;16.80;94.90;;;;;;4996530;28;20465;-91
2021/09/27 00:38:18;;;;;;;22.73;14.45;;;16.70;94.90;;;;;;4996405;28;20398;-91
2021/09/27 00:40:55;;;;;;;22.17;15.98;;;16.70;95.00;;;;;;4996148;28;20018;-91
2021/09/27 00:43:21;;;;;;;23.83;16.25;;;16.70;95.00;;;;;;4995655;28;20038;-91
2021/09/27 00:45:56;;;;;;;23.60;15.95;;;16.80;95.00;;;;;;4993344;28;20034;-91
2021/09/27 00:48:23;;;;;;;20.27;14.82;;;16.80;95.00;;;;;;4995539;28;20068;-92
2021/09/27 00:50:54;;;;;;;24.90;15.50;;;16.80;95.00;;;;;;4996479;28;20022;-91
2021/09/27 00:53:23;;;;;;;22.43;15.53;;;16.80;95.00;;;;;;5013597;28;20503;-91
2021/09/27 00:55:50;;;;;;;21.10;14.55;;;16.80;95.00;;;;;;4995363;28;20303;-91
2021/09/27 00:58:18;;;;;;;21.67;14.77;;;16.70;94.90;;;;;;5012962;28;20030;-91
2021/09/27 01:00:44;;;;;;;19.52;13.98;;;16.70;95.00;;;;;;4995521;28;20041;-91
2021/09/27 01:03:11;;;;;;;20.70;14.02;;;16.70;94.90;;;;;;4994611;28;20275;-91
2021/09/27 01:05:42;;;;;;;19.65;14.38;;;16.70;94.80;;;;;;4995097;28;20018;-91
2021/09/27 01:08:24;;;;;;;22.65;14.40;;;16.70;94.80;;;;;;4995732;28;20022;-91
2021/09/27 01:10:56;;;;;;;20.85;14.93;;;16.60;94.90;;;;;;5012993;28;20494;-91
2021/09/27 01:13:35;;;;;;;22.47;14.17;;;16.60;94.80;;;;;;5012295;28;20036;-90
2021/09/27 01:16:31;;;;;;;19.02;13.00;;;16.60;94.90;;;;;;4993734;28;20037;-91
2021/09/27 01:19:31;;;;;;;21.08;13.50;;;16.60;94.90;;;;;;4992424;28;20152;-91
2021/09/27 01:22:08;;;;;;;18.10;12.88;;;16.50;94.90;;;;;;5007849;28;20259;-91
2021/09/27 01:25:13;;;;;;;20.50;14.25;;;16.50;94.80;;;;;;4998256;28;20011;-90
2021/09/27 01:28:00;;;;;;;16.65;12.82;;;16.50;94.90;;;;;;5018380;28;20022;-91
2021/09/27 01:31:03;;;;;;;18.08;12.68;;;16.50;94.80;;;;;;5025068;28;20028;-91
2021/09/27 01:33:42;;;;;;;18.15;12.73;;;16.50;94.90;;;;;;4994252;28;20030;-91
2021/09/27 01:36:29;;;;;;;22.00;14.25;;;16.50;94.80;;;;;;4993933;28;20038;-91
2021/09/27 01:39:26;;;;;;;18.02;13.48;;;16.50;94.80;;;;;;5012467;28;20029;-91
2021/09/27 01:42:15;;;;;;;17.58;12.10;;;16.50;94.80;;;;;;4985469;28;20178;-91
2021/09/27 01:45:11;;;;;;;18.75;12.45;;;16.50;94.80;;;;;;4991861;28;20034;-91
2021/09/27 01:48:04;;;;;;;17.60;12.20;;;16.40;94.70;;;;;;4994870;28;20311;-91
2021/09/27 01:50:39;;;;;;;19.77;12.00;;;16.40;94.80;;;;;;4994751;28;20048;-91
2021/09/27 01:53:13;;;;;;;17.35;11.35;;;16.40;94.80;;;;;;5012117;28;20030;-90
2021/09/27 01:55:52;;;;;;;17.85;12.10;;;16.50;94.80;;;;;;4993713;28;20030;-91
2021/09/27 01:59:02;;;;;;;19.13;13.10;;;16.50;94.80;;;;;;4994514;28;20425;-91
2021/09/27 02:01:57;;;;;;;16.33;12.60;;;16.50;94.70;;;;;;5004526;28;20022;-92
2021/09/27 02:04:49;;;;;;;21.38;14.60;;;16.50;94.70;;;;;;4994961;28;20042;-92
2021/09/27 02:07:16;;;;;;;24.48;15.75;;;16.50;94.70;;;;;;4995376;28;20022;-91
2021/09/27 02:09:50;;;;;;;21.80;15.25;;;16.50;94.60;;;;;;4994053;28;20026;-91
2021/09/27 02:12:23;;;;;;;23.50;15.95;;;16.50;94.80;;;;;;5012023;28;20026;-91
2021/09/27 02:15:28;;;;;;;25.05;15.13;;;16.50;94.80;;;;;;4993947;28;20498;-91
2021/09/27 02:18:12;;;;;;;19.92;14.70;;;16.50;94.80;;;;;;4983155;28;20038;-91
2021/09/27 02:20:42;;;;;;;20.08;15.07;;;16.50;94.80;;;;;;4994335;28;20026;-91
2021/09/27 02:23:30;;;;;;;20.38;14.38;;;16.40;94.60;;;;;;4994074;28;20056;-91
2021/09/27 02:25:56;;;;;;;20.80;15.02;;;16.40;94.70;;;;;;4993140;28;20081;-91
2021/09/27 02:28:23;;;;;;;24.55;14.63;;;16.30;94.60;;;;;;4992415;28;20053;-91
2021/09/27 02:31:09;;;;;;;19.95;13.90;;;16.30;94.70;;;;;;5001010;28;20018;-90
2021/09/27 02:33:37;;;;;;;21.55;14.40;;;16.30;95.20;;;;;;4993607;28;20030;-91
2021/09/27 02:36:06;;;;;;;21.00;13.93;;;16.30;95.00;;;;;;4993599;28;20119;-91
2021/09/27 02:39:09;;;;;;;22.55;14.40;;;16.30;95.00;;;;;;4985915;28;20032;-91
2021/09/27 02:41:47;;;;;;;18.83;13.50;;;16.30;95.00;;;;;;4992904;28;20617;-91
2021/09/27 02:44:13;;;;;;;19.08;14.25;;;16.20;95.00;;;;;;4993732;28;20573;-91
2021/09/27 02:46:52;;;;;;;20.70;15.13;;;16.20;95.00;;;;;;4993678;28;20065;-92
2021/09/27 02:49:19;;;;;;;23.58;15.13;;;16.10;94.90;;;;;;4992697;28;20559;-91
2021/09/27 02:51:47;;;;;;;20.00;13.90;;;16.10;95.00;;;;;;5010532;28;20386;-91
2021/09/27 02:54:20;;;;;;;22.25;14.88;;;16.10;95.10;;;;;;4992870;28;20565;-91
2021/09/27 02:57:01;;;;;;;22.73;15.05;;;16.10;95.20;;;;;;5010566;28;20026;-92
2021/09/27 02:59:45;;;;;;;22.05;14.88;;;16.10;95.30;;;;;;5010608;28;20037;-92
2021/09/27 03:02:19;;;;;;;22.70;14.80;;;16.10;95.30;;;;;;4992754;28;20033;-91
2021/09/27 03:05:14;;;;;;;20.58;13.77;;;16.10;95.20;;;;;;4991041;28;20030;-91
2021/09/27 03:08:11;;;;;;;19.40;13.32;;;16.10;95.30;;;;;;4992166;28;20018;-92
2021/09/27 03:11:09;;;;;;;15.25;11.75;;;16.10;95.30;;;;;;4995837;28;20025;-91
2021/09/27 03:14:05;;;;;;;19.23;12.48;;;16.00;95.30;;;;;;4995065;28;20036;-91
2021/09/27 03:17:02;;;;;;;21.95;13.80;;;16.10;95.30;;;;;;4956816;28;20042;-91
2021/09/27 03:19:57;;;;;;;17.73;12.82;;;16.10;95.10;;;;;;4953641;28;20520;-91
2021/09/27 03:23:02;;;;;;;18.35;13.00;;;16.00;95.20;;;;;;5011911;28;20040;-91
2021/09/27 03:25:55;;;;;;;20.73;13.68;;;16.00;95.20;;;;;;4996398;28;20022;-90
2021/09/27 03:28:27;;;;;;;15.75;11.73;;;16.00;95.30;;;;;;4995793;28;20034;-91
2021/09/27 03:30:55;;;;;;;18.17;11.83;;;16.00;95.20;;;;;;4995494;28;20018;-92
2021/09/27 03:33:38;;;;;;;18.27;13.35;;;16.00;95.30;;;;;;4995570;28;20129;-91
2021/09/27 03:36:25;;;;;;;18.27;12.52;;;16.00;95.30;;;;;;4996070;28;20112;-91
2021/09/27 03:39:20;;;;;;;15.60;11.80;;;16.00;95.30;;;;;;4995401;28;20510;-91
2021/09/27 03:41:52;;;;;;;16.38;12.18;;;16.00;95.30;;;;;;4986383;28;20029;-91
2021/09/27 03:44:23;;;;;;;;;;;16.10;95.30;;;;;;4996811;28;20025;-91
2021/09/27 03:47:22;;;;;;;20.52;13.10;;;16.10;95.10;;;;;;4969568;28;1087703;-91
2021/09/27 03:49:56;;;;;;;20.30;14.13;;;16.10;95.20;;;;;;4989525;28;20022;-90
2021/09/27 03:52:40;;;;;;;17.90;13.35;;;16.00;95.10;;;;;;4992420;28;20390;-91
2021/09/27 03:55:06;;;;;;;22.40;14.40;;;16.00;95.20;;;;;;4996712;28;20037;-91
2021/09/27 03:57:38;;;;;;;17.63;12.73;;;16.00;95.10;;;;;;5014054;28;20022;-91
2021/09/27 04:00:06;;;;;;;17.77;12.30;;;16.00;95.20;;;;;;4996056;28;20113;-92
2021/09/27 04:02:42;;;;;;;21.20;13.75;;;16.00;95.20;;;;;;4996875;28;20049;-92
2021/09/27 04:05:21;;;;;;;23.17;14.75;;;16.00;95.20;;;;;;4994934;28;20029;-90
2021/09/27 04:08:06;;;;;;;21.05;14.55;;;16.00;95.20;;;;;;4994865;28;20092;-91
2021/09/27 04:11:03;;;;;;;21.17;14.07;;;16.00;95.20;;;;;;4992886;28;20033;-91
2021/09/27 04:13:34;;;;;;;24.00;13.80;;;16.00;95.20;;;;;;4993423;28;20402;-92
2021/09/27 04:16:19;;;;;;;18.88;12.80;;;15.90;95.20;;;;;;4995995;28;20082;-91
2021/09/27 04:19:16;;;;;;;20.73;13.85;;;15.90;95.30;;;;;;4996259;28;20033;-91
2021/09/27 04:21:54;;;;;;;20.00;14.30;;;15.90;95.40;;;;;;5012237;28;20037;-91
2021/09/27 04:24:26;;;;;;;20.83;14.65;;;15.90;95.30;;;;;;4997404;28;20021;-91
2021/09/27 04:27:33;;;;;;;21.60;14.05;;;15.90;95.40;;;;;;4996851;28;20533;-90
2021/09/27 04:30:17;;;;;;;20.88;14.45;;;15.90;95.50;;;;;;4996278;28;20017;-91
2021/09/27 04:32:58;;;;;;;25.30;14.70;;;15.90;95.30;;;;;;4988151;28;20128;-91
2021/09/27 04:36:11;;;;;;;20.73;14.57;;;15.90;95.30;;;;;;4995830;28;20153;-91
2021/09/27 04:38:38;;;;;;;18.88;13.73;;;15.90;95.30;;;;;;5006200;28;20454;-90
2021/09/27 04:41:21;;;;;;;20.45;13.63;;;15.80;95.20;;;;;;4995619;28;20034;-91
2021/09/27 04:43:57;;;;;;;19.85;13.63;;;15.80;95.30;;;;;;4986714;28;20026;-91
2021/09/27 04:46:48;;;;;;;20.17;14.50;;;15.80;95.50;;;;;;5001295;28;20032;-91
2021/09/27 04:49:39;;;;;;;21.83;14.55;;;15.80;95.50;;;;;;4994995;28;20037;-91
2021/09/27 04:52:31;;;;;;;19.05;14.23;;;15.80;95.50;;;;;;5006806;28;20021;-91
2021/09/27 04:55:06;;;;;;;20.75;13.07;;;15.80;95.50;;;;;;5006547;28;20121;-91
2021/09/27 04:58:03;;;;;;;18.45;13.77;;;15.70;95.40;;;;;;4996645;28;20032;-91
2021/09/27 05:00:47;;;;;;;20.15;13.35;;;15.70;95.60;;;;;;4980752;28;20092;-91
2021/09/27 05:04:00;;;;;;;24.17;13.70;;;15.70;95.50;;;;;;4994878;28;20037;-92
2021/09/27 05:06:41;;;;;;;;;;;15.70;95.50;;;;;;4918273;29;20019;-91
2021/09/27 05:09:33;;;;;;;20.63;13.48;;;15.70;95.40;;;;;;5012718;28;20497;-90
2021/09/27 05:12:26;;;;;;;20.67;13.43;;;15.60;95.60;;;;;;4995935;28;20030;-90
2021/09/27 05:15:02;;;;;;;;;;;15.70;95.60;;;;;;5013845;28;20022;-91
2021/09/27 05:18:01;;;;;;;21.85;14.07;;;15.60;95.40;;;;;;4998335;28;19905;-91
2021/09/27 05:21:14;;;;;;;21.13;14.05;;;15.60;95.60;;;;;;5000037;28;20125;-91
2021/09/27 05:23:58;;;;;;;18.13;12.82;;;15.70;95.60;;;;;;4914297;29;20555;-90
2021/09/27 05:27:03;;;;;;;18.23;11.75;;;15.70;95.70;;;;;;4924055;29;20111;-91
2021/09/27 05:29:57;;;;;;;20.25;12.80;;;15.70;95.70;;;;;;4984359;28;20033;-91
2021/09/27 05:32:51;;;;;;;19.35;13.50;;;15.80;95.80;;;;;;5012982;28;20113;-91
2021/09/27 05:35:51;;;;;;;19.17;12.45;;;15.80;95.70;;;;;;4962736;28;20095;-90
2021/09/27 05:38:56;;;;;;;17.40;11.23;;;15.70;95.70;;;;;;5013205;28;20022;-91
2021/09/27 05:41:34;;;;;;;16.67;11.98;;;15.70;95.80;;;;;;4995164;28;20038;-91
2021/09/27 05:44:33;;;;;;;19.67;13.40;;;15.80;95.80;;;;;;4995727;28;20394;-90
2021/09/27 05:47:06;;;;;;;17.92;12.23;;;15.80;95.80;;;;;;4995978;28;20041;-91
2021/09/27 05:49:38;;;;;;;20.25;13.68;;;15.80;95.80;;;;;;4995179;28;20496;-91
2021/09/27 05:52:14;;;;;;;19.85;12.98;;;15.80;95.80;;;;;;4995457;28;20319;-90
2021/09/27 05:55:01;;;;;;;17.98;12.70;;;15.80;95.80;;;;;;4995209;28;20026;-91
2021/09/27 05:57:36;;;;;;;16.02;11.77;;;15.80;95.80;;;;;;4996074;28;20390;-91
2021/09/27 06:00:20;;;;;;;15.10;11.55;;;15.90;95.80;;;;;;4996496;28;20152;-90
2021/09/27 06:02:57;;;;;;;16.92;12.85;;;15.90;95.90;;;;;;5006260;28;20022;-91
2021/09/27 06:05:40;;;;;;;18.95;12.85;;;15.90;95.80;;;;;;5027034;28;20035;-91
2021/09/27 06:08:18;;;;;;;21.17;13.13;;;15.80;95.80;;;;;;5033831;28;20017;-91
2021/09/27 06:10:53;;;;;;;17.83;12.50;;;15.80;95.50;;;;;;5018253;28;20022;-91
2021/09/27 06:13:27;;;;;;;17.75;11.75;;;15.70;95.60;;;;;;5002491;28;20091;-91
2021/09/27 06:16:28;;;;;;;17.38;11.27;;;15.70;95.80;;;;;;4993521;28;20423;-91
2021/09/27 06:19:18;;;;;;;17.33;12.68;;;15.60;95.90;;;;;;4990259;28;20037;-91
2021/09/27 06:22:10;;;;;;;18.40;12.25;;;15.70;95.80;;;;;;5002841;28;20046;-91
2021/09/27 06:25:00;;;;;;;16.88;12.20;;;15.70;95.90;;;;;;4981100;28;20045;-91
2021/09/27 06:27:32;;;;;;;17.05;12.15;;;15.70;95.70;;;;;;5012977;28;20036;-91
2021/09/27 06:30:15;;;;;;;17.95;12.45;;;15.70;95.70;;;;;;5015210;28;20024;-91
2021/09/27 06:32:54;;;;;;;17.00;12.55;;;15.70;95.80;;;;;;4994719;28;20021;-91
2021/09/27 06:35:23;;;;;;;15.82;12.10;;;15.70;95.80;;;;;;4996857;28;20479;-91
2021/09/27 06:37:50;;;;;;;17.67;12.82;;;15.70;95.80;;;;;;4997421;28;20026;-91
2021/09/27 06:40:17;;;;;;;18.75;13.18;;;15.70;95.80;;;;;;5004706;28;20045;-91
2021/09/27 06:42:43;;;;;;;18.38;12.52;;;15.80;95.90;;;;;;5015928;28;20038;-91
2021/09/27 06:45:10;;;;;;;18.02;12.95;;;15.80;95.90;;;;;;5018413;28;20044;-90
2021/09/27 06:47:37;;;;;;;22.15;13.77;;;15.80;95.80;;;;;;5012969;28;20044;-90
2021/09/27 06:50:04;;;;;;;20.63;13.90;;;15.80;95.80;;;;;;5003216;28;20469;-90
2021/09/27 06:52:30;;;;;;;20.17;13.57;;;15.80;95.90;;;;;;4999293;28;20092;-90
2021/09/27 06:54:56;;;;;;;18.48;14.02;;;15.80;95.80;;;;;;4999461;28;20030;-91
2021/09/27 06:57:21;;;;;;;20.83;14.45;;;15.90;95.80;;;;;;4998407;28;20097;-90
2021/09/27 06:59:47;;;;;;;18.58;12.85;;;15.90;96.00;;;;;;4997470;28;20136;-91
2021/09/27 07:02:13;;;;;;;22.10;14.25;;;16.00;95.90;;;;;;4998624;28;20030;-91
2021/09/27 07:04:39;;;;;;;22.35;14.50;;;16.10;95.80;;;;;;5015585;28;20029;-91
2021/09/27 07:07:05;;;;;;;21.90;13.70;;;16.10;95.80;;;;;;4998053;28;20025;-91
2021/09/27 07:09:30;;;;;;;21.00;13.32;;;16.20;95.90;;;;;;4998499;28;20018;-91
2021/09/27 07:11:57;;;;;;;18.48;13.57;;;16.40;96.00;;;;;;4998531;28;20026;-91
2021/09/27 07:14:22;;;;;;;19.70;13.40;;;16.50;95.90;;;;;;5015064;28;20021;-91
2021/09/27 07:16:48;;;;;;;19.63;13.73;;;16.60;95.90;;;;;;4997135;28;20492;-91
2021/09/27 07:19:14;;;;;;;16.67;12.43;;;16.70;95.80;;;;;;4996906;28;20061;-91
2021/09/27 07:21:42;;;;;;;19.50;13.50;;;16.90;95.80;;;;;;4997393;28;20500;-91
2021/09/27 07:24:09;;;;;;;19.48;13.48;;;17.10;95.70;;;;;;4997064;28;20080;-91
2021/09/27 07:26:35;;;;;;;15.98;12.57;;;17.30;95.40;;;;;;4997380;28;20026;-91
2021/09/27 07:29:02;;;;;;;17.48;13.02;;;17.40;95.50;;;;;;4997130;28;20040;-91
2021/09/27 07:31:30;;;;;;;20.50;13.63;;;17.50;95.20;;;;;;4996895;28;20445;-91
2021/09/27 07:33:58;;;;;;;17.20;13.20;;;17.50;95.10;;;;;;4996689;28;20034;-91
2021/09/27 07:36:24;;;;;;;18.42;13.75;;;17.50;95.10;;;;;;4996890;28;20029;-92
2021/09/27 07:38:50;;;;;;;17.83;13.27;;;17.50;94.80;;;;;;4997402;28;20145;-91
2021/09/27 07:41:16;;;;;;;19.13;12.25;;;17.70;94.70;;;;;;4997458;28;20129;-91
2021/09/27 07:43:42;;;;;;;18.70;12.88;;;17.80;94.50;;;;;;4996093;28;20117;-91
2021/09/27 07:46:07;;;;;;;17.35;13.13;;;18.10;94.40;;;;;;4997954;28;20127;-91
2021/09/27 07:48:33;;;;;;;14.13;11.43;;;18.60;94.00;;;;;;4997745;28;20025;-91
2021/09/27 07:50:59;;;;;;;14.50;10.82;;;19.20;93.50;;;;;;4996804;28;20022;-91
2021/09/27 07:53:26;;;;;;;15.75;10.60;;;19.80;92.90;;;;;;4996397;28;20030;-91
2021/09/27 07:55:52;;;;;;;11.63;9.73;;;20.30;92.10;;;;;;4996924;28;20034;-91
2021/09/27 07:58:18;;;;;;;16.08;10.00;;;20.50;91.80;;;;;;4996661;28;20022;-91
2021/09/27 08:00:48;;;;;;;13.25;9.68;;;20.60;91.70;;;;;;4997262;28;20030;-91
2021/09/27 08:03:14;;;;;;;11.35;9.65;;;20.70;91.70;;;;;;4997013;28;20395;-91
2021/09/27 08:05:40;;;;;;;11.95;9.05;;;20.70;91.80;;;;;;4996602;28;20029;-91
2021/09/27 08:08:06;;;;;;;12.10;9.35;;;20.60;91.80;;;;;;4997771;28;20297;-91
2021/09/27 08:10:36;;;;;;;12.65;11.07;;;20.60;92.10;;;;;;4996640;28;20435;-91
2021/09/27 08:13:02;;;;;;;9.73;8.50;;;20.60;92.20;;;;;;4996373;28;20454;-91
2021/09/27 08:15:32;;;;;;;12.73;9.98;;;20.60;92.30;;;;;;4996001;28;20494;-91
2021/09/27 08:17:59;;;;;;;10.68;9.52;;;20.60;92.00;;;;;;4995967;28;20651;-91
2021/09/27 08:20:30;;;;;;;14.27;10.60;;;20.70;92.30;;;;;;4995828;28;20026;-91
2021/09/27 08:22:55;;;;;;;11.15;9.32;;;20.80;92.00;;;;;;4996023;28;20022;-91
2021/09/27 08:25:23;;;;;;;12.18;10.00;;;20.70;91.90;;;;;;4995530;28;20036;-92
2021/09/27 08:27:49;;;;;;;14.55;9.45;;;20.70;91.90;;;;;;5000973;28;20056;-91
2021/09/27 08:30:19;;;;;;;13.82;9.00;;;20.70;92.00;;;;;;4999049;28;20033;-91
2021/09/27 08:32:46;;;;;;;11.15;7.53;;;20.70;91.70;;;;;;4987314;28;20021;-91
2021/09/27 08:35:14;;;;;;;10.10;7.68;;;20.70;91.50;;;;;;4996065;28;20249;-91
2021/09/27 08:37:40;;;;;;;10.25;7.95;;;20.60;91.40;;;;;;4995364;28;20048;-92
2021/09/27 08:40:07;;;;;;;9.35;7.72;;;20.60;91.60;;;;;;4995836;28;20458;-91
2021/09/27 08:42:37;;;;;;;9.60;6.55;;;20.80;91.70;;;;;;4995157;28;20026;-91
2021/09/27 08:45:10;;;;;;;9.10;6.43;;;20.80;91.30;;;;;;4995730;28;20390;-91
2021/09/27 08:48:06;;;;;;;7.75;6.70;;;20.80;91.20;;;;;;4994830;28;20032;-91
2021/09/27 08:50:38;;;;;;;9.35;7.05;;;20.80;90.60;;;;;;4995835;28;20022;-90
2021/09/27 08:53:31;;;;;;;13.95;7.93;;;20.80;90.60;;;;;;4994947;28;20022;-91
2021/09/27 08:56:25;;;;;;;8.10;6.93;;;20.60;90.40;;;;;;4995611;28;20021;-91
2021/09/27 08:59:03;;;;;;;8.98;6.85;;;20.50;90.60;;;;;;4994779;28;20030;-90
2021/09/27 09:01:46;;;;;;;10.82;7.40;;;20.50;90.80;;;;;;4995086;28;20361;-91
2021/09/27 09:04:25;;;;;;;11.00;7.38;;;20.40;90.30;;;;;;5012424;28;20034;-91
2021/09/27 09:06:56;;;;;;;7.32;6.30;;;20.30;90.40;;;;;;4994508;28;20022;-90
2021/09/27 09:09:28;;;;;;;7.53;6.72;;;20.00;90.20;;;;;;5012764;28;20474;-91
2021/09/27 09:11:59;;;;;;;7.97;5.93;;;19.90;90.40;;;;;;4995424;28;20112;-90
2021/09/27 09:14:34;;;;;;;6.47;5.80;;;19.90;90.50;;;;;;4994541;28;20026;-90
2021/09/27 09:17:02;;;;;;;6.85;5.82;;;19.90;90.40;;;;;;4995071;28;20118;-91
2021/09/27 09:19:31;;;;;;;6.07;5.47;;;20.00;90.60;;;;;;4993729;28;20049;-91
2021/09/27 09:22:04;;;;;;;8.48;6.60;;;20.10;90.70;;;;;;4994553;28;20500;-90
2021/09/27 09:24:36;;;;;;;9.00;5.88;;;20.20;90.50;;;;;;4994366;28;20125;-91
2021/09/27 09:27:09;;;;;;;6.67;5.97;;;20.10;90.40;;;;;;4994937;28;20120;-90
2021/09/27 09:29:41;;;;;;;7.78;5.30;;;20.10;90.30;;;;;;5011899;28;20343;-90
2021/09/27 09:32:17;;;;;;;5.78;4.43;;;20.00;90.30;;;;;;4994063;28;20036;-90
2021/09/27 09:34:43;;;;;;;6.88;4.82;;;20.00;90.10;;;;;;4994705;28;20124;-91
2021/09/27 09:37:21;;;;;;;5.68;4.47;;;20.10;90.20;;;;;;4994349;28;20030;-90
2021/09/27 09:39:58;;;;;;;4.88;4.38;;;20.20;89.70;;;;;;4995038;28;20034;-90
2021/09/27 09:42:31;;;;;;;5.97;4.18;;;20.30;89.90;;;;;;4994612;28;20080;-91
2021/09/27 09:45:15;;;;;;;5.75;3.65;;;20.40;90.10;;;;;;4995551;28;20052;-90
2021/09/27 09:47:41;;;;;;;4.07;3.67;;;20.60;89.80;;;;;;4994605;28;20533;-91
2021/09/27 09:50:15;;;;;;;5.25;3.30;;;20.80;89.20;;;;;;4994817;28;20050;-91
2021/09/27 09:52:40;;;;;;;4.88;2.65;;;20.90;88.70;;;;;;4993754;28;20033;-90
2021/09/27 09:55:23;;;;;;;4.68;2.97;;;20.80;88.50;;;;;;4994748;28;20029;-90
2021/09/27 09:58:00;;;;;;;5.07;3.15;;;20.90;88.10;;;;;;4989439;28;20022;-90
2021/09/27 10:00:50;;;;;;;3.67;3.20;;;21.00;87.80;;;;;;4995351;28;20025;-91
2021/09/27 10:03:32;;;;;;;3.42;3.10;;;21.30;87.40;;;;;;4994427;28;20033;-91
2021/09/27 10:06:27;;;;;;;3.33;3.03;;;21.40;87.50;;;;;;4994788;28;20026;-90
2021/09/27 10:08:57;;;;;;;7.20;3.25;;;21.60;87.00;;;;;;4995082;28;20062;-90
2021/09/27 10:11:42;;;;;;;5.03;2.75;;;21.80;86.50;;;;;;5012877;28;20020;-90
2021/09/27 10:14:23;;;;;;;5.57;3.05;;;21.90;85.60;;;;;;4993614;28;20054;-94
2021/09/27 10:17:41;;;;;;;3.75;2.80;;;22.10;85.40;;;;;;5003766;28;20021;-93
2021/09/27 10:20:22;;;;;;;3.38;3.05;;;22.30;85.00;;;;;;4993844;28;20042;-94
2021/09/27 10:23:00;;;;;;;6.23;2.70;;;22.40;84.80;;;;;;5011678;28;20029;-95
2021/09/27 10:25:33;;;;;;;3.05;2.80;;;22.50;83.60;;;;;;5009382;28;20052;-95
2021/09/27 10:28:09;;;;;;;3.55;2.38;;;22.40;83.90;;;;;;5001387;28;20028;-95
2021/09/27 10:30:55;;;;;;;3.28;2.97;;;22.50;83.30;;;;;;5005840;28;20033;-94
2021/09/27 10:34:10;;;;;;;3.58;2.80;;;22.70;83.40;;;;;;5011558;28;20088;-94
2021/09/27 10:36:47;;;;;;;5.53;3.00;;;22.90;83.00;;;;;;4970615;23;20034;-91
2021/09/27 10:39:14;;;;;;;3.95;3.08;;;23.20;82.00;;;;;;5007606;28;20018;-90
2021/09/27 10:41:49;;;;;;;4.10;2.90;;;23.10;81.10;;;;;;4993623;28;20400;-92
2021/09/27 10:44:21;;;;;;;3.88;2.90;;;23.10;80.80;;;;;;4991823;28;20041;-91
2021/09/27 10:50:01;;;;;;;2.70;2.50;;;23.10;80.50;;;;;;5311971;22;20452;-92
2021/09/27 10:52:54;;;;;;;3.80;2.90;;;23.10;79.60;;;;;;5019740;28;20030;-94
2021/09/27 10:55:57;;;;;;;2.88;2.50;;;23.10;78.90;;;;;;5004572;28;20056;-93
2021/09/27 10:59:12;;;;;;;3.33;2.53;;;23.00;78.70;;;;;;4986894;28;20079;-93
2021/09/27 11:02:31;;;;;;;3.97;2.50;;;23.10;79.30;;;;;;5007701;28;20122;-93
2021/09/27 11:05:54;;;;;;;;;;;;;;;;;;;;;
2021/09/27 11:16:08;;;;;;;3.17;2.57;;;23.20;77.70;;;;;;5012679;28;20042;-93
2021/09/27 11:19:48;;;;;;;3.22;2.40;;;23.10;77.00;;;;;;4992536;28;20294;-92
2021/09/27 11:22:53;;;;;;;;;;;;;;;;;;;;;
2021/09/27 11:29:08;;;;;;;3.08;2.63;;;23.00;78.60;;;;;;4906005;29;20064;-94
2021/09/27 11:32:29;;;;;;;3.42;2.70;;;23.20;78.00;;;;;;4984133;28;20387;-93
2021/09/27 11:35:32;;;;;;;2.70;2.50;;;23.40;77.90;;;;;;4932535;29;20028;-93
2021/09/27 11:38:53;;;;;;;2.50;2.30;;;23.60;77.50;;;;;;4937703;28;20267;-94
2021/09/27 11:41:23;;;;;;;2.10;2.00;;;23.90;76.50;;;;;;4986285;28;20023;-93
2021/09/27 11:44:28;;;;;;;3.70;2.33;;;24.10;75.30;;;;;;4984384;28;20179;-94
2021/09/27 11:47:14;;;;;;;3.15;2.35;;;24.10;74.80;;;;;;4980283;28;20064;-94
2021/09/27 11:50:15;;;;;;;3.28;2.30;;;23.90;74.00;;;;;;4984543;28;20518;-93
2021/09/27 11:52:59;;;;;;;2.20;2.03;;;23.80;73.20;;;;;;4981959;28;20560;-92
2021/09/27 11:55:54;;;;;;;2.63;2.30;;;23.40;73.50;;;;;;5004182;28;20027;-93
2021/09/27 11:58:57;;;;;;;3.33;2.10;;;23.30;73.50;;;;;;4972304;28;20034;-91
2021/09/27 12:02:16;;;;;;;2.10;1.90;;;23.10;74.10;;;;;;4973853;28;20034;-91
2021/09/27 12:04:55;;;;;;;3.38;2.28;;;22.90;74.00;;;;;;4969358;28;20146;-91
2021/09/27 12:07:29;;;;;;;6.85;2.85;;;22.90;74.10;;;;;;4976777;28;20033;-90
2021/09/27 12:10:10;;;;;;;5.40;2.00;;;23.00;74.60;;;;;;4983884;28;20026;-91
2021/09/27 12:13:04;;;;;;;3.28;2.15;;;23.10;73.80;;;;;;4985686;28;20038;-93
2021/09/27 12:15:36;;;;;;;2.75;2.22;;;23.40;73.80;;;;;;4968841;28;20030;-92
2021/09/27 12:18:06;;;;;;;4.82;2.17;;;23.70;73.70;;;;;;4980837;28;20399;-91
2021/09/27 12:20:47;;;;;;;3.78;2.08;;;24.00;72.90;;;;;;4986805;28;20121;-92
2021/09/27 12:24:07;;;;;;;2.30;2.05;;;24.10;71.30;;;;;;4980776;28;20046;-91
2021/09/27 12:26:56;;;;;;;2.80;1.90;;;24.20;71.30;;;;;;4995850;28;20503;-92
2021/09/27 12:29:26;;;;;;;3.00;1.90;;;24.30;71.30;;;;;;4978213;28;20030;-92
2021/09/27 12:32:02;;;;;;;5.88;2.25;;;24.50;71.60;;;;;;4991247;28;20034;-91
2021/09/27 12:34:44;;;;;;;2.67;2.05;;;24.70;70.60;;;;;;4994228;28;20026;-91
2021/09/27 12:37:33;;;;;;;2.03;1.70;;;24.90;69.80;;;;;;4964429;28;20125;-92
2021/09/27 12:40:02;;;;;;;4.68;1.80;;;25.10;69.80;;;;;;4975130;28;20038;-91
2021/09/27 12:43:14;;;;;;;3.78;1.63;;;25.50;70.10;;;;;;4975954;28;20070;-92
2021/09/27 12:46:33;;;;;;;;;;;;;;;;;;;;;
2021/09/27 12:49:26;;;;;;;1.77;1.63;;;25.90;68.60;;;;;;4971038;28;20553;-91
2021/09/27 12:52:06;;;;;;;2.72;1.83;;;25.90;67.50;;;;;;4954144;28;20067;-88
2021/09/27 12:54:34;;;;;;;3.42;1.98;;;25.80;67.00;;;;;;4968781;28;20022;-87
2021/09/27 12:57:33;;;;;;;2.95;2.10;;;25.90;67.40;;;;;;4977377;28;20046;-86
2021/09/27 13:00:26;;;;;;;2.42;2.13;;;25.90;65.90;;;;;;5011562;28;20090;-87
2021/09/27 13:03:03;;;;;;;5.10;2.17;;;25.80;66.30;;;;;;4983259;28;20236;-87
2021/09/27 13:06:16;;;;;;;3.15;2.10;;;25.80;65.50;;;;;;4984192;28;20034;-87
2021/09/27 13:09:04;;;;;;;1.90;1.80;;;25.70;65.00;;;;;;4975726;28;20041;-87
2021/09/27 13:12:43;;;;;;;1.92;1.80;;;25.60;65.90;;;;;;4975604;28;20110;-86
2021/09/27 13:15:56;;;;;;;5.85;2.13;;;25.50;65.00;;;;;;4971132;28;20145;-87
2021/09/27 13:18:24;;;;;;;;;;;25.10;64.50;;;;;;4974148;28;20523;-87
2021/09/27 13:21:29;;;;;;;2.90;1.98;;;24.90;66.70;;;;;;4974436;28;19921;-87
2021/09/27 13:24:09;;;;;;;3.67;2.33;;;24.60;66.20;;;;;;4974645;28;20034;-87
2021/09/27 13:27:11;;;;;;;3.22;1.80;;;24.50;66.30;;;;;;4979931;28;20041;-87
2021/09/27 13:30:10;;;;;;;3.40;2.10;;;24.40;66.40;;;;;;4973954;28;20042;-87
2021/09/27 13:33:19;;;;;;;5.78;2.75;;;24.30;66.20;;;;;;4991210;28;20029;-87
2021/09/27 13:36:35;;;;;;;2.17;2.00;;;24.20;66.00;;;;;;4972222;28;20033;-87
2021/09/27 13:39:22;;;;;;;5.32;2.38;;;24.00;67.00;;;;;;4874142;29;20387;-86
2021/09/27 13:42:12;;;;;;;3.70;2.13;;;24.00;66.80;;;;;;4887328;29;20112;-86
2021/09/27 13:45:10;;;;;;;2.70;2.50;;;23.90;66.70;;;;;;4906356;28;20415;-87
2021/09/27 13:47:54;;;;;;;3.40;1.83;;;23.90;67.20;;;;;;4984500;28;20038;-86
2021/09/27 13:50:47;;;;;;;;;;;;;;;;;;;;;
2021/09/27 13:53:47;;;;;;;4.00;2.28;;;23.80;66.90;;;;;;4979595;28;20030;-86
2021/09/27 13:56:33;;;;;;;4.70;2.53;;;23.70;67.10;;;;;;4989258;28;20038;-87
2021/09/27 13:59:45;;;;;;;5.43;2.42;;;23.70;67.20;;;;;;4971478;28;20160;-86
2021/09/27 14:02:11;;;;;;;2.33;2.13;;;23.60;67.60;;;;;;4991606;28;20022;-87
2021/09/27 14:04:45;;;;;;;2.25;2.00;;;23.60;68.00;;;;;;4984663;28;20042;-87
2021/09/27 14:07:24;;;;;;;5.07;2.10;;;23.60;67.90;;;;;;4970037;28;20054;-87